Time;durP1;ratioP1;P1;durP2;ratioP2;P2;SDS_P1;SDS_P2;PMS_P1;PMS_P2;Temp;Humidity;BMP_temperature;BMP_pressure;BME280_temperature;BME280_humidity;BME280_pressure;Samples;Min_cycle;Max_cycle;Signal;HPM_P1;HPM_P2
2021/09/12 00:01:39;;;;;;;24.08;21.08;;;20.10;99.90;;;;;;5031744;28;20238;-71
2021/09/12 00:04:05;;;;;;;24.60;20.58;;;20.10;99.90;;;;;;5030830;28;20553;-71
2021/09/12 00:06:32;;;;;;;29.42;20.63;;;20.00;99.90;;;;;;5030599;28;20647;-72
2021/09/12 00:09:00;;;;;;;26.30;20.35;;;20.00;99.90;;;;;;5030865;28;20225;-72
2021/09/12 00:11:27;;;;;;;25.65;19.50;;;20.00;99.90;;;;;;5031578;28;20213;-72
2021/09/12 00:13:55;;;;;;;26.90;20.52;;;20.00;99.90;;;;;;5031287;28;20225;-72
2021/09/12 00:16:21;;;;;;;23.52;19.67;;;19.90;99.90;;;;;;5029655;28;20198;-71
2021/09/12 00:18:48;;;;;;;22.50;19.05;;;19.90;99.90;;;;;;5031078;28;20225;-73
2021/09/12 00:21:15;;;;;;;21.92;19.42;;;;;;;;;;5030341;28;20210;-72
2021/09/12 00:23:42;;;;;;;24.70;20.02;;;19.80;99.90;;;;;;5030770;28;20222;-73
2021/09/12 00:26:09;;;;;;;26.83;19.85;;;19.90;99.90;;;;;;5030399;28;20230;-73
2021/09/12 00:28:36;;;;;;;24.15;19.30;;;19.70;99.90;;;;;;5031375;28;20217;-72
2021/09/12 00:31:04;;;;;;;27.95;18.65;;;19.60;99.90;;;;;;5030697;28;20210;-71
2021/09/12 00:33:32;;;;;;;22.98;18.55;;;19.70;99.90;;;;;;5030696;28;20221;-72
2021/09/12 00:35:59;;;;;;;22.60;18.63;;;19.60;99.90;;;;;;5030590;28;20233;-72
2021/09/12 00:38:26;;;;;;;26.05;20.00;;;19.60;99.90;;;;;;5030901;28;20225;-72
2021/09/12 00:40:57;;;;;;;22.58;18.65;;;19.60;99.90;;;;;;5030726;28;20211;-72
2021/09/12 00:43:24;;;;;;;22.42;19.52;;;19.50;99.90;;;;;;5030593;28;20202;-72
2021/09/12 00:45:53;;;;;;;22.95;18.05;;;19.50;99.90;;;;;;5031079;28;20348;-72
2021/09/12 00:48:22;;;;;;;23.63;18.92;;;19.50;99.90;;;;;;5030899;28;20206;-72
2021/09/12 00:50:49;;;;;;;21.40;19.10;;;19.40;99.90;;;;;;5026199;28;20206;-72
2021/09/12 00:53:17;;;;;;;22.80;17.83;;;19.40;99.90;;;;;;5038654;28;20203;-71
2021/09/12 00:55:44;;;;;;;26.73;19.20;;;19.40;99.90;;;;;;5031396;28;20212;-73
2021/09/12 00:58:12;;;;;;;24.08;18.55;;;19.30;99.90;;;;;;5031395;28;20691;-72
2021/09/12 01:00:39;;;;;;;20.63;17.42;;;19.30;99.90;;;;;;5031191;28;20214;-72
2021/09/12 01:03:06;;;;;;;24.83;17.95;;;19.30;99.90;;;;;;5030912;28;20215;-72
2021/09/12 01:05:34;;;;;;;23.00;17.50;;;19.30;99.90;;;;;;5030724;28;20244;-72
2021/09/12 01:08:01;;;;;;;20.63;16.83;;;19.20;99.90;;;;;;5031708;28;20214;-72
2021/09/12 01:10:28;;;;;;;22.23;18.10;;;19.20;99.90;;;;;;5030856;28;20217;-72
2021/09/12 01:12:55;;;;;;;22.02;18.73;;;19.20;99.90;;;;;;5030533;28;20203;-73
2021/09/12 01:15:22;;;;;;;23.20;17.65;;;19.20;99.90;;;;;;5033041;28;20202;-72
2021/09/12 01:17:49;;;;;;;22.73;18.30;;;19.20;99.90;;;;;;5030503;28;20210;-71
2021/09/12 01:20:15;;;;;;;22.40;18.33;;;19.20;99.90;;;;;;5030653;28;20211;-72
2021/09/12 01:22:45;;;;;;;20.77;17.70;;;19.20;99.90;;;;;;5031070;28;20652;-72
2021/09/12 01:25:13;;;;;;;21.10;17.40;;;19.10;99.90;;;;;;5030699;28;20231;-72
2021/09/12 01:27:40;;;;;;;20.98;17.25;;;19.10;99.90;;;;;;5030980;28;20213;-72
2021/09/12 01:30:08;;;;;;;28.95;19.95;;;19.10;99.90;;;;;;5038058;28;20684;-72
2021/09/12 01:32:34;;;;;;;31.35;21.20;;;19.10;99.90;;;;;;5037158;28;20217;-72
2021/09/12 01:35:01;;;;;;;28.50;21.55;;;19.00;99.90;;;;;;5034443;28;20191;-72
2021/09/12 01:37:28;;;;;;;24.88;18.67;;;19.00;99.90;;;;;;5028703;28;20246;-72
2021/09/12 01:39:55;;;;;;;25.33;18.95;;;19.00;99.90;;;;;;5031546;28;20675;-72
2021/09/12 01:42:23;;;;;;;24.63;18.35;;;19.00;99.90;;;;;;5033363;28;20217;-72
2021/09/12 01:44:51;;;;;;;20.85;17.40;;;18.90;99.90;;;;;;5033850;28;20211;-72
2021/09/12 01:47:18;;;;;;;23.52;18.40;;;18.90;99.90;;;;;;5034242;28;20207;-72
2021/09/12 01:49:46;;;;;;;21.10;17.63;;;19.00;99.90;;;;;;5033961;28;20202;-72
2021/09/12 01:52:15;;;;;;;22.38;18.05;;;18.80;99.90;;;;;;5037378;28;20203;-72
2021/09/12 01:54:41;;;;;;;21.42;18.20;;;18.80;99.90;;;;;;5033998;28;20210;-73
2021/09/12 01:57:09;;;;;;;21.80;17.48;;;18.80;99.90;;;;;;5033916;28;20217;-73
2021/09/12 01:59:37;;;;;;;20.70;17.05;;;18.80;99.90;;;;;;5033149;28;20222;-71
2021/09/12 02:02:04;;;;;;;20.25;17.23;;;18.70;99.90;;;;;;5033438;28;20520;-72
2021/09/12 02:04:31;;;;;;;24.25;16.77;;;18.80;99.90;;;;;;5034267;28;20213;-72
2021/09/12 02:06:58;;;;;;;20.83;17.48;;;18.80;99.90;;;;;;5033934;28;20723;-72
2021/09/12 02:09:26;;;;;;;19.33;17.13;;;18.70;99.90;;;;;;5033620;28;20210;-71
2021/09/12 02:11:53;;;;;;;20.98;17.48;;;18.70;99.90;;;;;;5034513;28;20582;-72
2021/09/12 02:14:20;;;;;;;18.88;16.27;;;18.70;99.90;;;;;;5033708;28;20214;-71
2021/09/12 02:16:49;;;;;;;19.60;16.20;;;18.70;99.90;;;;;;5033807;28;20210;-72
2021/09/12 02:19:16;;;;;;;20.30;17.15;;;18.70;99.90;;;;;;5033923;28;20214;-71
2021/09/12 02:21:43;;;;;;;20.92;17.55;;;18.70;99.90;;;;;;5033551;28;20206;-71
2021/09/12 02:24:09;;;;;;;23.17;18.13;;;18.60;99.90;;;;;;5034025;28;20310;-71
2021/09/12 02:26:36;;;;;;;23.23;17.45;;;18.60;99.90;;;;;;5039497;28;20237;-73
2021/09/12 02:29:03;;;;;;;22.13;18.38;;;18.60;99.90;;;;;;5041527;28;20210;-71
2021/09/12 02:31:30;;;;;;;24.45;18.05;;;18.60;99.90;;;;;;5033337;28;20215;-72
2021/09/12 02:33:58;;;;;;;20.73;17.27;;;18.60;99.90;;;;;;5034005;28;20214;-72
2021/09/12 02:36:26;;;;;;;22.23;17.25;;;18.50;99.90;;;;;;5033843;28;20585;-72
2021/09/12 02:38:52;;;;;;;19.25;16.52;;;18.40;99.90;;;;;;5032963;28;20211;-72
2021/09/12 02:41:19;;;;;;;19.02;16.85;;;18.40;99.90;;;;;;5032744;28;20203;-72
2021/09/12 02:43:46;;;;;;;21.38;16.75;;;18.40;99.90;;;;;;5032920;28;20218;-72
2021/09/12 02:46:13;;;;;;;21.50;16.35;;;18.40;99.90;;;;;;5032939;28;20253;-72
2021/09/12 02:48:39;;;;;;;18.50;16.55;;;18.30;99.90;;;;;;5032730;28;20273;-72
2021/09/12 02:51:08;;;;;;;19.73;16.42;;;18.30;99.90;;;;;;5033388;28;20651;-73
2021/09/12 02:53:34;;;;;;;22.70;17.52;;;18.30;99.90;;;;;;5032854;28;20552;-72
2021/09/12 02:56:01;;;;;;;20.50;17.23;;;18.30;99.90;;;;;;5032302;28;20213;-72
2021/09/12 02:58:28;;;;;;;21.15;17.00;;;18.20;99.90;;;;;;5032585;28;20207;-72
2021/09/12 03:00:55;;;;;;;20.05;16.00;;;18.20;99.90;;;;;;5032098;28;20206;-72
2021/09/12 03:03:21;;;;;;;20.13;16.05;;;18.10;99.90;;;;;;5032602;28;20702;-72
2021/09/12 03:05:48;;;;;;;19.52;17.45;;;18.10;99.90;;;;;;5031847;28;20234;-72
2021/09/12 03:08:16;;;;;;;20.80;16.25;;;18.10;99.90;;;;;;5032342;28;20577;-72
2021/09/12 03:10:43;;;;;;;25.27;17.63;;;18.00;99.90;;;;;;5032672;28;20586;-72
2021/09/12 03:13:10;;;;;;;20.45;16.17;;;;;;;;;;5032759;28;20210;-72
2021/09/12 03:15:37;;;;;;;19.08;17.08;;;18.00;99.90;;;;;;5032451;28;20233;-73
2021/09/12 03:18:04;;;;;;;19.33;16.90;;;18.00;99.90;;;;;;5017971;28;20205;-72
2021/09/12 03:20:31;;;;;;;18.35;16.17;;;17.90;99.90;;;;;;5031862;28;20211;-72
2021/09/12 03:22:57;;;;;;;21.42;17.17;;;17.90;99.90;;;;;;5032163;28;20210;-72
2021/09/12 03:25:26;;;;;;;22.00;17.75;;;17.90;99.90;;;;;;5032268;28;20643;-72
2021/09/12 03:27:53;;;;;;;21.80;16.93;;;17.90;99.90;;;;;;5032362;28;20210;-72
2021/09/12 03:30:21;;;;;;;21.55;16.52;;;17.90;99.90;;;;;;5031637;28;20215;-72
2021/09/12 03:32:48;;;;;;;25.30;18.23;;;;;;;;;;5031809;28;20573;-72
2021/09/12 03:35:15;;;;;;;21.23;16.85;;;17.80;99.90;;;;;;5031672;28;20879;-72
2021/09/12 03:37:47;;;;;;;21.48;16.02;;;17.80;99.90;;;;;;5024461;28;20223;-72
2021/09/12 03:40:14;;;;;;;23.05;16.52;;;17.80;99.90;;;;;;5018777;28;20207;-72
2021/09/12 03:42:42;;;;;;;21.60;17.70;;;17.70;99.90;;;;;;5031549;28;20212;-72
2021/09/12 03:45:12;;;;;;;20.30;17.23;;;17.80;99.90;;;;;;5031606;28;20210;-72
2021/09/12 03:47:39;;;;;;;19.45;17.35;;;17.80;99.90;;;;;;5032349;28;20583;-72
2021/09/12 03:50:06;;;;;;;19.70;16.98;;;17.70;99.90;;;;;;5031315;28;20202;-72
2021/09/12 03:52:33;;;;;;;19.75;16.92;;;17.70;99.90;;;;;;5025674;28;20339;-73
2021/09/12 03:55:00;;;;;;;22.80;18.98;;;17.60;99.90;;;;;;5030715;28;20303;-72
2021/09/12 03:57:27;;;;;;;20.95;17.35;;;17.60;99.90;;;;;;5031855;28;20215;-72
2021/09/12 03:59:55;;;;;;;21.83;17.70;;;17.70;99.90;;;;;;5029979;28;20218;-72
2021/09/12 04:02:22;;;;;;;20.38;18.20;;;17.60;99.90;;;;;;5030974;28;20937;-73
2021/09/12 04:04:48;;;;;;;23.83;19.10;;;17.70;99.90;;;;;;5031457;28;20203;-73
2021/09/12 04:07:15;;;;;;;20.90;17.47;;;17.60;99.90;;;;;;5031011;28;20250;-72
2021/09/12 04:09:42;;;;;;;20.80;18.30;;;17.60;99.90;;;;;;5031190;28;20433;-71
2021/09/12 04:12:09;;;;;;;22.13;18.80;;;17.60;99.90;;;;;;5031587;28;20218;-72
2021/09/12 04:14:36;;;;;;;21.90;18.50;;;17.50;99.90;;;;;;5031050;28;20214;-73
2021/09/12 04:17:04;;;;;;;21.33;17.77;;;17.50;99.90;;;;;;5030984;28;20217;-73
2021/09/12 04:19:31;;;;;;;22.70;18.10;;;17.50;99.90;;;;;;5030636;28;20290;-73
2021/09/12 04:21:58;;;;;;;19.33;17.23;;;17.50;99.90;;;;;;5030704;28;20210;-72
2021/09/12 04:24:25;;;;;;;24.00;19.57;;;17.50;99.90;;;;;;5031111;28;20202;-73
2021/09/12 04:26:52;;;;;;;20.00;17.73;;;17.50;99.90;;;;;;5030942;28;20537;-72
2021/09/12 04:29:21;;;;;;;21.50;18.85;;;17.50;99.90;;;;;;5031219;28;20214;-72
2021/09/12 04:31:47;;;;;;;23.90;18.83;;;17.50;99.90;;;;;;5031163;28;20206;-72
2021/09/12 04:34:16;;;;;;;23.05;18.17;;;17.50;99.90;;;;;;5030856;28;20206;-72
2021/09/12 04:36:42;;;;;;;22.60;18.00;;;17.50;99.90;;;;;;5030319;28;20218;-71
2021/09/12 04:39:09;;;;;;;23.10;18.53;;;17.50;99.90;;;;;;5030022;28;20222;-72
2021/09/12 04:41:36;;;;;;;20.40;18.08;;;17.50;99.90;;;;;;5030291;28;20214;-72
2021/09/12 04:44:03;;;;;;;21.20;18.38;;;17.50;99.90;;;;;;5024195;28;20215;-72
2021/09/12 04:46:30;;;;;;;24.00;18.75;;;17.50;99.90;;;;;;5015748;28;20234;-72
2021/09/12 04:48:57;;;;;;;22.15;19.02;;;17.50;99.90;;;;;;5019038;28;20225;-72
2021/09/12 04:51:26;;;;;;;25.02;18.63;;;17.60;99.90;;;;;;5017301;28;20218;-71
2021/09/12 04:53:55;;;;;;;23.53;18.43;;;17.60;99.90;;;;;;5020855;28;20210;-72
2021/09/12 04:56:22;;;;;;;22.80;20.00;;;17.50;99.90;;;;;;5018496;28;20206;-72
2021/09/12 04:58:49;;;;;;;21.07;18.60;;;17.60;99.90;;;;;;5018163;28;20213;-72
2021/09/12 05:01:15;;;;;;;24.92;18.15;;;17.60;99.90;;;;;;5016736;28;20211;-72
2021/09/12 05:03:42;;;;;;;20.63;18.25;;;17.60;99.90;;;;;;5014125;28;20648;-73
2021/09/12 05:06:09;;;;;;;23.55;20.20;;;17.60;99.90;;;;;;5014034;28;20711;-72
2021/09/12 05:08:38;;;;;;;24.13;19.20;;;17.60;99.90;;;;;;5015300;28;20233;-72
2021/09/12 05:11:05;;;;;;;22.27;18.90;;;17.70;99.90;;;;;;5033331;28;20205;-73
2021/09/12 05:13:32;;;;;;;21.33;18.02;;;17.70;99.90;;;;;;5034263;28;20215;-71
2021/09/12 05:15:58;;;;;;;24.57;18.83;;;17.70;99.90;;;;;;5026614;28;20370;-73
2021/09/12 05:18:25;;;;;;;23.23;19.50;;;17.80;99.90;;;;;;5017685;28;20210;-72
2021/09/12 05:20:52;;;;;;;27.38;19.05;;;17.80;99.90;;;;;;5028229;28;20215;-72
2021/09/12 05:23:19;;;;;;;20.15;18.05;;;17.80;99.90;;;;;;5033894;28;20207;-73
2021/09/12 05:25:48;;;;;;;22.00;19.38;;;17.90;99.90;;;;;;5034236;28;20215;-72
2021/09/12 05:28:15;;;;;;;22.10;18.97;;;18.10;99.90;;;;;;5032467;28;20699;-72
2021/09/12 05:30:42;;;;;;;22.67;18.60;;;18.10;99.90;;;;;;5016472;28;20349;-72
2021/09/12 05:33:09;;;;;;;21.02;18.30;;;18.10;99.90;;;;;;5017918;28;20212;-71
2021/09/12 05:35:35;;;;;;;20.13;17.58;;;18.20;99.90;;;;;;5017765;28;20215;-72
2021/09/12 05:38:02;;;;;;;22.40;19.00;;;18.30;99.90;;;;;;5023977;28;20219;-72
2021/09/12 05:40:29;;;;;;;23.40;19.23;;;18.40;99.90;;;;;;5016284;28;20211;-71
2021/09/12 05:42:58;;;;;;;21.80;18.58;;;18.50;99.90;;;;;;5031745;28;20210;-72
2021/09/12 05:45:26;;;;;;;22.67;17.92;;;18.60;99.90;;;;;;5033947;28;20264;-72
2021/09/12 05:47:53;;;;;;;23.35;18.80;;;18.60;99.90;;;;;;5034007;28;20218;-72
2021/09/12 05:50:20;;;;;;;20.48;18.30;;;18.70;99.90;;;;;;5034095;28;20292;-72
2021/09/12 05:52:47;;;;;;;21.38;19.00;;;18.80;99.90;;;;;;5034057;28;20210;-72
2021/09/12 05:55:14;;;;;;;21.13;18.65;;;18.80;99.90;;;;;;5033288;28;20225;-72
2021/09/12 05:57:41;;;;;;;21.90;18.92;;;19.00;99.90;;;;;;5032204;28;20207;-72
2021/09/12 06:00:10;;;;;;;23.45;19.10;;;19.00;99.90;;;;;;5034542;28;20315;-72
2021/09/12 06:02:38;;;;;;;20.23;18.10;;;19.10;99.90;;;;;;5032602;28;20217;-72
2021/09/12 06:05:06;;;;;;;21.00;18.73;;;19.10;99.90;;;;;;5033053;28;20202;-73
2021/09/12 06:07:32;;;;;;;21.45;19.17;;;19.20;99.90;;;;;;5032351;28;20237;-68
2021/09/12 06:09:59;;;;;;;20.40;18.33;;;19.20;99.90;;;;;;5033716;28;20218;-70
2021/09/12 06:12:26;;;;;;;22.65;18.70;;;19.20;99.90;;;;;;5033475;28;20217;-69
2021/09/12 06:14:53;;;;;;;21.02;18.48;;;19.20;99.90;;;;;;5033672;28;20209;-70
2021/09/12 06:17:21;;;;;;;21.25;18.55;;;19.30;99.90;;;;;;5032733;28;20908;-69
2021/09/12 06:19:48;;;;;;;23.33;18.58;;;19.40;99.90;;;;;;5033847;28;20241;-69
2021/09/12 06:22:15;;;;;;;22.50;19.58;;;19.60;99.90;;;;;;5033870;28;20628;-69
2021/09/12 06:24:43;;;;;;;21.33;19.02;;;19.60;99.90;;;;;;5033366;28;20226;-69
2021/09/12 06:27:09;;;;;;;22.85;19.75;;;19.70;99.90;;;;;;5032992;28;20223;-69
2021/09/12 06:29:36;;;;;;;22.25;18.75;;;19.80;99.90;;;;;;5032479;28;20687;-71
2021/09/12 06:32:03;;;;;;;23.35;19.73;;;19.80;99.90;;;;;;5033081;28;20576;-70
2021/09/12 06:34:32;;;;;;;21.75;19.42;;;19.80;99.90;;;;;;5033604;28;20210;-70
2021/09/12 06:36:59;;;;;;;22.35;19.00;;;19.90;99.90;;;;;;5033294;28;20231;-70
2021/09/12 06:39:25;;;;;;;20.70;18.50;;;19.90;99.90;;;;;;5032652;28;20206;-68
2021/09/12 06:41:52;;;;;;;28.95;19.77;;;19.90;99.90;;;;;;5032882;28;20218;-69
2021/09/12 06:44:20;;;;;;;21.77;19.48;;;20.10;99.90;;;;;;5032707;28;20210;-69
2021/09/12 06:46:46;;;;;;;20.25;18.00;;;20.20;99.90;;;;;;5032776;28;20683;-67
2021/09/12 06:49:13;;;;;;;21.65;18.95;;;20.30;99.90;;;;;;5032353;28;20847;-67
2021/09/12 06:51:41;;;;;;;21.80;18.70;;;20.40;99.90;;;;;;5032137;28;20628;-69
2021/09/12 06:54:08;;;;;;;20.50;18.05;;;20.40;99.90;;;;;;5032735;28;20325;-68
2021/09/12 06:56:35;;;;;;;22.73;18.58;;;20.50;99.90;;;;;;5033095;28;20587;-67
2021/09/12 06:59:01;;;;;;;22.98;18.80;;;20.60;99.90;;;;;;5031949;28;20213;-68
2021/09/12 07:01:28;;;;;;;22.10;17.42;;;20.70;99.90;;;;;;5032340;28;20211;-68
2021/09/12 07:03:55;;;;;;;21.40;18.35;;;20.80;99.90;;;;;;5032833;28;20206;-68
2021/09/12 07:06:22;;;;;;;21.20;18.50;;;20.80;99.90;;;;;;5032749;28;20718;-69
2021/09/12 07:08:50;;;;;;;20.92;18.50;;;20.90;99.90;;;;;;5031953;28;20584;-70
2021/09/12 07:11:17;;;;;;;19.90;17.80;;;21.00;99.90;;;;;;5032253;28;20203;-69
2021/09/12 07:13:43;;;;;;;22.73;18.25;;;21.10;99.90;;;;;;5032859;28;20214;-69
2021/09/12 07:16:10;;;;;;;22.52;18.10;;;21.20;99.90;;;;;;5029159;28;20212;-68
2021/09/12 07:18:37;;;;;;;19.83;17.80;;;21.30;99.90;;;;;;5016760;28;20207;-69
2021/09/12 07:21:04;;;;;;;20.23;18.17;;;21.50;99.90;;;;;;5023669;28;20210;-69
2021/09/12 07:23:31;;;;;;;19.80;17.10;;;21.50;99.90;;;;;;5031684;28;20211;-70
2021/09/12 07:25:59;;;;;;;21.15;18.05;;;21.70;99.90;;;;;;5033900;28;20577;-69
2021/09/12 07:28:26;;;;;;;20.65;17.45;;;21.80;99.90;;;;;;5031210;28;20226;-67
2021/09/12 07:30:52;;;;;;;21.23;18.92;;;22.00;99.90;;;;;;5030231;28;20207;-70
2021/09/12 07:33:19;;;;;;;20.15;16.85;;;22.00;99.90;;;;;;5031960;28;20202;-69
2021/09/12 07:35:46;;;;;;;21.02;18.00;;;22.10;99.90;;;;;;5032418;28;20242;-69
2021/09/12 07:38:13;;;;;;;18.63;16.73;;;22.30;99.90;;;;;;5029917;28;20678;-69
2021/09/12 07:40:39;;;;;;;19.05;17.13;;;22.50;99.90;;;;;;5031305;28;20580;-70
2021/09/12 07:43:07;;;;;;;18.65;16.65;;;22.70;99.90;;;;;;5036709;28;20616;-69
2021/09/12 07:45:34;;;;;;;18.40;15.40;;;22.80;99.90;;;;;;5031637;28;20580;-70
2021/09/12 07:48:01;;;;;;;19.10;15.88;;;22.90;99.90;;;;;;5031259;28;20231;-69
2021/09/12 07:50:28;;;;;;;18.65;16.50;;;23.00;99.90;;;;;;5027843;28;20226;-69
2021/09/12 07:52:55;;;;;;;17.15;15.32;;;23.10;99.90;;;;;;5031947;28;20219;-69
2021/09/12 07:55:22;;;;;;;20.45;16.17;;;23.20;99.90;;;;;;5023352;28;20207;-69
2021/09/12 07:57:49;;;;;;;20.25;16.58;;;23.30;99.90;;;;;;5031428;28;20651;-68
2021/09/12 08:00:18;;;;;;;17.35;15.65;;;23.50;99.90;;;;;;5030799;28;20700;-69
2021/09/12 08:02:45;;;;;;;17.40;15.55;;;23.50;99.90;;;;;;5030599;28;20228;-70
2021/09/12 08:05:12;;;;;;;21.45;16.77;;;23.70;99.90;;;;;;5026641;28;20733;-68
2021/09/12 08:07:39;;;;;;;17.23;15.40;;;23.90;99.90;;;;;;5034946;28;20233;-67
2021/09/12 08:10:06;;;;;;;17.33;15.27;;;24.20;99.90;;;;;;5034539;28;20284;-68
2021/09/12 08:12:34;;;;;;;17.02;15.23;;;24.40;99.90;;;;;;5033646;28;20221;-67
2021/09/12 08:15:00;;;;;;;18.48;16.42;;;24.60;99.90;;;;;;5042332;28;20213;-69
2021/09/12 08:17:28;;;;;;;16.05;14.40;;;24.60;99.90;;;;;;5028432;28;20199;-68
2021/09/12 08:19:55;;;;;;;16.70;15.02;;;24.80;99.90;;;;;;5035638;28;20634;-69
2021/09/12 08:22:22;;;;;;;17.67;14.75;;;25.00;99.90;;;;;;5030460;28;20206;-68
2021/09/12 08:24:49;;;;;;;18.77;14.15;;;25.30;99.90;;;;;;5025667;28;20219;-69
2021/09/12 08:27:15;;;;;;;16.50;14.90;;;25.30;99.90;;;;;;5028701;28;20206;-68
2021/09/12 08:29:42;;;;;;;16.25;14.43;;;25.40;99.90;;;;;;5031211;28;20218;-69
2021/09/12 08:32:09;;;;;;;15.95;14.45;;;25.50;99.90;;;;;;5030951;28;20218;-68
2021/09/12 08:34:38;;;;;;;18.05;15.82;;;25.60;99.90;;;;;;5028696;28;20588;-67
2021/09/12 08:37:05;;;;;;;18.73;16.85;;;25.80;99.90;;;;;;5018151;28;20230;-69
2021/09/12 08:39:32;;;;;;;18.17;16.27;;;25.80;99.90;;;;;;5022486;28;20529;-67
2021/09/12 08:41:59;;;;;;;19.08;17.08;;;25.80;99.90;;;;;;5024889;28;20211;-68
2021/09/12 08:44:26;;;;;;;18.42;16.38;;;25.80;99.90;;;;;;5030590;28;20198;-68
2021/09/12 08:46:52;;;;;;;16.73;15.13;;;25.80;99.90;;;;;;5030030;28;20276;-69
2021/09/12 08:49:19;;;;;;;15.93;14.38;;;25.80;99.90;;;;;;5030616;28;20226;-69
2021/09/12 08:51:48;;;;;;;19.60;15.02;;;25.90;99.90;;;;;;5030387;28;20222;-69
2021/09/12 08:54:14;;;;;;;20.73;15.65;;;26.10;99.90;;;;;;5029071;28;20213;-67
2021/09/12 08:56:41;;;;;;;18.48;16.58;;;26.40;99.90;;;;;;5033230;28;20213;-67
2021/09/12 08:59:24;;;;;;;18.17;16.27;;;26.50;99.90;;;;;;5025063;28;20199;-68
2021/09/12 09:01:55;;;;;;;17.83;15.45;;;26.40;99.90;;;;;;5022911;28;20207;-69
2021/09/12 09:04:22;;;;;;;19.50;16.83;;;26.50;99.90;;;;;;5023815;28;20198;-69
2021/09/12 09:07:00;;;;;;;19.45;17.23;;;26.40;99.90;;;;;;5017465;28;20246;-70
2021/09/12 09:09:39;;;;;;;19.48;17.38;;;26.40;99.90;;;;;;5028028;28;20641;-70
2021/09/12 09:12:20;;;;;;;18.33;16.42;;;26.60;99.90;;;;;;5017842;28;20603;-70
2021/09/12 09:15:01;;;;;;;17.40;15.40;;;26.90;99.90;;;;;;5016083;28;20209;-69
2021/09/12 09:17:27;;;;;;;17.75;15.88;;;26.80;99.90;;;;;;5021445;28;20203;-69
2021/09/12 09:19:55;;;;;;;17.10;15.50;;;26.40;99.90;;;;;;5029611;28;20214;-69
2021/09/12 09:22:30;;;;;;;16.92;15.35;;;26.20;99.90;;;;;;5029933;28;20218;-67
2021/09/12 09:25:00;;;;;;;16.33;14.68;;;26.10;99.90;;;;;;5020482;28;20210;-68
2021/09/12 09:27:27;;;;;;;15.35;13.73;;;26.30;99.90;;;;;;5029761;28;20678;-67
2021/09/12 09:29:56;;;;;;;15.80;14.18;;;26.50;99.90;;;;;;5028789;28;20217;-68
2021/09/12 09:32:29;;;;;;;16.73;15.02;;;26.90;99.90;;;;;;5029649;28;20245;-68
2021/09/12 09:34:59;;;;;;;14.18;12.88;;;27.30;99.90;;;;;;5029110;28;20202;-68
2021/09/12 09:37:26;;;;;;;14.85;13.35;;;27.40;99.90;;;;;;5028741;28;20250;-69
2021/09/12 09:39:55;;;;;;;13.15;11.77;;;27.70;99.90;;;;;;5031117;28;20214;-69
2021/09/12 09:42:35;;;;;;;14.30;12.88;;;28.30;99.90;;;;;;5023745;28;21762;-68
2021/09/12 09:45:04;;;;;;;14.68;13.27;;;28.80;99.90;;;;;;5022974;28;20216;-69
2021/09/12 09:47:31;;;;;;;14.80;13.35;;;28.90;99.50;;;;;;5025725;28;20207;-69
2021/09/12 09:50:10;;;;;;;14.68;13.27;;;29.00;99.00;;;;;;5014711;28;20603;-68
2021/09/12 09:52:37;;;;;;;12.85;11.65;;;29.20;97.90;;;;;;5019913;28;20677;-68
2021/09/12 09:55:07;;;;;;;12.38;11.07;;;29.30;98.70;;;;;;5033048;28;20211;-69
2021/09/12 09:57:34;;;;;;;13.55;12.25;;;29.50;97.90;;;;;;5025908;28;20584;-68
2021/09/12 10:00:02;;;;;;;12.57;11.27;;;29.70;96.90;;;;;;5029930;28;20294;-68
2021/09/12 10:02:28;;;;;;;11.13;10.13;;;29.80;95.90;;;;;;5023734;28;20667;-70
2021/09/12 10:04:57;;;;;;;11.57;10.55;;;29.80;95.50;;;;;;5028202;28;20363;-68
2021/09/12 10:07:24;;;;;;;11.90;10.70;;;29.90;95.00;;;;;;5030497;28;20282;-69
2021/09/12 10:09:51;;;;;;;10.98;9.88;;;29.80;94.60;;;;;;5020612;28;20593;-69
2021/09/12 10:12:19;;;;;;;8.50;7.70;;;29.70;94.50;;;;;;5019954;28;20214;-69
2021/09/12 10:14:51;;;;;;;11.27;9.98;;;29.70;94.70;;;;;;5025630;28;20233;-68
2021/09/12 10:17:22;;;;;;;12.00;10.40;;;29.90;94.00;;;;;;5020439;28;20211;-68
2021/09/12 10:19:49;;;;;;;12.00;10.88;;;29.80;93.90;;;;;;5030510;28;20606;-68
2021/09/12 10:22:18;;;;;;;11.38;10.27;;;29.70;93.80;;;;;;5029213;28;20210;-70
2021/09/12 10:25:08;;;;;;;9.57;8.77;;;29.60;94.40;;;;;;5023105;28;20206;-68
2021/09/12 10:27:38;;;;;;;10.73;9.63;;;29.50;93.70;;;;;;5021446;28;20615;-68
2021/09/12 10:30:26;;;;;;;9.35;8.45;;;29.40;94.30;;;;;;5019893;28;20207;-69
2021/09/12 10:33:16;;;;;;;9.75;8.75;;;29.60;94.20;;;;;;5031052;28;20327;-68
2021/09/12 10:35:51;;;;;;;8.57;7.78;;;30.00;93.40;;;;;;5030394;28;20211;-68
2021/09/12 10:38:25;;;;;;;8.85;7.85;;;30.40;93.40;;;;;;5032387;28;20210;-68
2021/09/12 10:41:16;;;;;;;7.00;6.30;;;30.70;92.00;;;;;;5022881;28;20293;-69
2021/09/12 10:43:49;;;;;;;7.00;6.40;;;31.00;90.60;;;;;;5033191;28;20285;-69
2021/09/12 10:46:29;;;;;;;7.20;6.50;;;31.10;89.90;;;;;;5032705;28;20194;-68
2021/09/12 10:49:08;;;;;;;6.90;6.28;;;31.10;88.90;;;;;;5026755;28;20675;-69
2021/09/12 10:51:40;;;;;;;6.93;6.32;;;30.80;88.90;;;;;;5022109;28;20214;-68
2021/09/12 10:54:07;;;;;;;8.02;6.75;;;30.50;88.30;;;;;;5023821;28;20206;-68
2021/09/12 10:56:35;;;;;;;7.65;6.95;;;30.20;88.50;;;;;;5018485;28;20207;-68
2021/09/12 10:59:05;;;;;;;7.97;7.18;;;29.70;89.30;;;;;;5019089;28;20690;-69
2021/09/12 11:01:34;;;;;;;8.95;7.85;;;29.30;90.40;;;;;;5032093;28;20213;-69
2021/09/12 11:04:01;;;;;;;7.72;6.93;;;28.90;91.00;;;;;;5032594;28;20551;-69
2021/09/12 11:06:29;;;;;;;8.43;7.60;;;28.50;91.50;;;;;;5032162;28;20241;-69
2021/09/12 11:08:56;;;;;;;7.82;7.13;;;28.20;92.80;;;;;;5032875;28;20329;-69
2021/09/12 11:11:24;;;;;;;8.30;7.50;;;28.30;93.10;;;;;;5020096;28;20210;-69
2021/09/12 11:13:53;;;;;;;8.77;7.97;;;28.70;92.50;;;;;;5033164;28;20214;-68
2021/09/12 11:16:23;;;;;;;8.23;7.53;;;29.10;91.80;;;;;;5032771;28;20206;-68
2021/09/12 11:18:52;;;;;;;8.05;7.22;;;29.60;91.00;;;;;;5032558;28;20226;-69
2021/09/12 11:21:32;;;;;;;7.88;7.10;;;29.90;90.50;;;;;;5030155;28;20206;-69
2021/09/12 11:24:01;;;;;;;7.95;7.25;;;29.90;89.30;;;;;;5031934;28;20217;-70
2021/09/12 11:26:29;;;;;;;6.82;6.20;;;29.60;89.70;;;;;;5031131;28;20203;-69
2021/09/12 11:29:04;;;;;;;8.55;7.03;;;29.10;90.00;;;;;;5028847;28;20282;-68
2021/09/12 11:31:35;;;;;;;7.07;6.18;;;28.60;90.40;;;;;;5031823;28;20615;-68
2021/09/12 11:34:02;;;;;;;6.97;6.38;;;28.10;90.90;;;;;;5032103;28;20248;-68
2021/09/12 11:36:41;;;;;;;7.45;6.75;;;27.60;91.50;;;;;;5028845;28;20222;-68
2021/09/12 11:39:07;;;;;;;7.95;7.22;;;27.10;92.30;;;;;;5032484;28;20205;-68
2021/09/12 11:41:34;;;;;;;8.40;7.45;;;26.80;93.00;;;;;;5031829;28;20217;-69
2021/09/12 11:44:02;;;;;;;8.02;7.18;;;26.50;93.70;;;;;;5032545;28;20222;-71
2021/09/12 11:46:30;;;;;;;8.38;7.57;;;26.30;94.50;;;;;;5031448;28;20198;-68
2021/09/12 11:49:00;;;;;;;9.23;8.25;;;26.10;95.20;;;;;;5032026;28;20229;-69
2021/09/12 11:51:28;;;;;;;9.35;8.45;;;26.00;95.80;;;;;;5032330;28;20535;-68
2021/09/12 11:54:09;;;;;;;11.98;9.43;;;25.80;96.70;;;;;;5032248;28;20210;-68
2021/09/12 11:56:37;;;;;;;10.65;9.13;;;25.70;97.80;;;;;;5027425;28;20748;-66
2021/09/12 11:59:05;;;;;;;10.25;9.20;;;25.60;98.40;;;;;;5029296;28;20647;-67
2021/09/12 12:01:32;;;;;;;9.75;8.82;;;25.60;99.10;;;;;;5031359;28;20210;-68
2021/09/12 12:04:03;;;;;;;11.13;9.73;;;25.70;99.50;;;;;;5031790;28;20229;-67
2021/09/12 12:06:31;;;;;;;10.35;9.38;;;25.80;99.80;;;;;;5030594;28;20252;-67
2021/09/12 12:09:11;;;;;;;9.50;8.60;;;26.20;99.70;;;;;;5017114;28;20551;-66
2021/09/12 12:11:40;;;;;;;9.75;8.88;;;26.50;99.80;;;;;;5027980;28;20211;-68
2021/09/12 12:14:09;;;;;;;9.05;8.23;;;26.70;99.00;;;;;;5017360;28;20214;-67
2021/09/12 12:16:40;;;;;;;9.40;8.50;;;26.90;98.50;;;;;;5031692;28;20268;-67
2021/09/12 12:19:10;;;;;;;9.00;7.88;;;27.10;98.00;;;;;;5027119;28;20204;-68
2021/09/12 12:21:37;;;;;;;9.05;8.15;;;27.30;98.30;;;;;;5030526;28;20206;-67
2021/09/12 12:24:15;;;;;;;8.93;8.02;;;27.70;97.70;;;;;;5023436;28;20560;-67
2021/09/12 12:26:44;;;;;;;8.93;7.35;;;28.10;97.10;;;;;;5028762;28;20206;-67
2021/09/12 12:29:11;;;;;;;7.82;7.03;;;28.30;95.80;;;;;;5030520;28;20227;-67
2021/09/12 12:31:39;;;;;;;6.65;6.05;;;28.40;95.00;;;;;;5031100;28;20690;-66
2021/09/12 12:34:07;;;;;;;12.00;8.60;;;28.40;94.30;;;;;;5025314;28;20543;-66
2021/09/12 12:36:34;;;;;;;8.63;7.72;;;28.40;94.00;;;;;;5030202;28;20222;-67